Time,TemperatureF,DewpointF,PressureIn,WindDirection,WindDirectionDegrees,WindSpeedMPH,WindSpeedGustMPH,Humidity,HourlyPrecipIn,Conditions,Clouds,dailyrainin,SolarRadiationWatts/m^2,SoftwareType,DateUTC
2013-06-06 00:01:00,61.0,59.0,-100.00,South,180,6.0,14.0,94,0.00,,,0.00,0.000000,,2013-06-06 04:01:00,
2013-06-06 00:23:00,61.0,59.0,-100.00,South,180,6.0,14.0,94,0.00,,,0.00,0.000000,,2013-06-06 04:23:00,
2013-06-06 00:33:00,61.0,59.0,-100.00,South,180,6.0,14.0,94,0.00,,,0.00,0.000000,,2013-06-06 04:33:00,
2013-06-06 00:42:00,61.0,59.0,-100.00,South,180,6.0,14.0,94,0.00,,,0.00,0.000000,,2013-06-06 04:42:00,
2013-06-06 00:53:00,61.0,59.0,-100.00,South,180,6.0,14.0,94,0.00,,,0.00,0.000000,,2013-06-06 04:53:00,
2013-06-06 01:01:00,61.0,59.0,-100.00,South,188,7.0,15.0,93,0.00,,,0.00,0.000000,,2013-06-06 05:01:00,
2013-06-06 01:23:00,61.0,59.0,-100.00,South,188,7.0,15.0,93,0.00,,,0.00,0.000000,,2013-06-06 05:23:00,
2013-06-06 01:32:00,61.0,59.0,-100.00,South,188,7.0,15.0,93,0.00,,,0.00,0.000000,,2013-06-06 05:32:00,
2013-06-06 01:42:00,61.0,59.0,-100.00,South,188,7.0,15.0,93,0.00,,,0.00,0.000000,,2013-06-06 05:42:00,
2013-06-06 01:52:00,61.0,59.0,-100.00,South,188,7.0,15.0,93,0.00,,,0.00,0.000000,,2013-06-06 05:52:00,
2013-06-06 02:01:00,60.0,57.0,-100.00,South,178,5.0,15.0,91,0.00,,,0.00,0.000000,,2013-06-06 06:01:00,
2013-06-06 02:22:00,60.0,57.0,-100.00,South,178,5.0,15.0,91,0.00,,,0.00,0.000000,,2013-06-06 06:22:00,
2013-06-06 02:33:00,60.0,57.0,-100.00,South,178,5.0,15.0,91,0.00,,,0.00,0.000000,,2013-06-06 06:33:00,
2013-06-06 02:42:00,60.0,57.0,-100.00,South,178,5.0,15.0,91,0.00,,,0.00,0.000000,,2013-06-06 06:42:00,
2013-06-06 02:52:00,60.0,57.0,-100.00,South,178,5.0,15.0,91,0.00,,,0.00,0.000000,,2013-06-06 06:52:00,
2013-06-06 03:01:00,60.0,57.0,-100.00,South,181,5.0,14.0,89,0.00,,,0.00,0.000000,,2013-06-06 07:01:00,
2013-06-06 03:22:00,60.0,57.0,-100.00,South,181,5.0,14.0,89,0.00,,,0.00,0.000000,,2013-06-06 07:22:00,
2013-06-06 03:32:00,60.0,57.0,-100.00,South,181,5.0,14.0,89,0.00,,,0.00,0.000000,,2013-06-06 07:32:00,
2013-06-06 03:42:00,60.0,57.0,-100.00,South,181,5.0,14.0,89,0.00,,,0.00,0.000000,,2013-06-06 07:42:00,
2013-06-06 03:52:00,60.0,57.0,-100.00,South,181,5.0,14.0,89,0.00,,,0.00,0.000000,,2013-06-06 07:52:00,
2013-06-06 04:01:00,60.0,57.0,-100.00,SSW,194,5.0,15.0,90,0.00,,,0.00,0.000000,,2013-06-06 08:01:00,
2013-06-06 04:22:00,60.0,57.0,-100.00,SSW,194,5.0,15.0,90,0.00,,,0.00,0.000000,,2013-06-06 08:22:00,
2013-06-06 04:32:00,60.0,57.0,-100.00,SSW,194,5.0,15.0,90,0.00,,,0.00,0.000000,,2013-06-06 08:32:00,
2013-06-06 04:42:00,60.0,57.0,-100.00,SSW,194,5.0,15.0,90,0.00,,,0.00,0.000000,,2013-06-06 08:42:00,
2013-06-06 04:52:00,60.0,57.0,-100.00,SSW,194,5.0,15.0,90,0.00,,,0.00,0.000000,,2013-06-06 08:52:00,
2013-06-06 05:01:00,59.0,57.0,-100.00,SW,218,4.0,11.0,92,0.00,,,0.00,0.000000,,2013-06-06 09:01:00,
2013-06-06 05:22:00,59.0,57.0,-100.00,SW,218,4.0,11.0,92,0.00,,,0.00,0.000000,,2013-06-06 09:22:00,
2013-06-06 05:33:00,59.0,57.0,-100.00,SW,218,4.0,11.0,92,0.00,,,0.00,0.000000,,2013-06-06 09:33:00,
2013-06-06 05:43:00,59.0,57.0,-100.00,SW,218,4.0,11.0,92,0.00,,,0.00,0.000000,,2013-06-06 09:43:00,
2013-06-06 05:53:00,59.0,57.0,-100.00,SW,218,4.0,11.0,92,0.00,,,0.00,0.000000,,2013-06-06 09:53:00,
2013-06-06 06:01:00,58.0,58.0,-100.00,South,176,5.0,10.0,99,0.02,,,0.02,0.000000,,2013-06-06 10:01:00,
2013-06-06 06:23:00,58.0,58.0,-100.00,South,176,5.0,10.0,99,0.02,,,0.02,0.000000,,2013-06-06 10:23:00,
2013-06-06 06:33:00,58.0,58.0,-100.00,South,176,5.0,10.0,99,0.02,,,0.02,0.000000,,2013-06-06 10:33:00,
2013-06-06 06:42:00,58.0,58.0,-100.00,South,176,5.0,10.0,99,0.02,,,0.02,0.000000,,2013-06-06 10:42:00,
2013-06-06 06:53:00,58.0,58.0,-100.00,South,176,5.0,10.0,99,0.02,,,0.02,0.000000,,2013-06-06 10:53:00,
2013-06-06 07:01:00,57.0,57.0,-100.00,South,186,4.0,11.0,100,0.05,,,0.07,6.000000,,2013-06-06 11:01:00,
2013-06-06 07:23:00,57.0,57.0,-100.00,South,186,4.0,11.0,100,0.05,,,0.07,6.000000,,2013-06-06 11:23:00,
2013-06-06 07:32:00,57.0,57.0,-100.00,South,186,4.0,11.0,100,0.05,,,0.07,6.000000,,2013-06-06 11:32:00,
2013-06-06 07:42:00,57.0,57.0,-100.00,South,186,4.0,11.0,100,0.05,,,0.07,6.000000,,2013-06-06 11:42:00,
2013-06-06 07:52:00,57.0,57.0,-100.00,South,186,4.0,11.0,100,0.05,,,0.07,6.000000,,2013-06-06 11:52:00,
2013-06-06 08:01:00,57.0,57.0,-100.00,SSE,168,4.0,9.0,100,0.20,,,0.27,24.000000,,2013-06-06 12:01:00,
2013-06-06 08:23:00,57.0,57.0,-100.00,SSE,168,4.0,9.0,100,0.20,,,0.27,24.000000,,2013-06-06 12:23:00,
2013-06-06 08:33:00,57.0,57.0,-100.00,SSE,168,4.0,9.0,100,0.20,,,0.27,24.000000,,2013-06-06 12:33:00,
2013-06-06 08:43:00,57.0,57.0,-100.00,SSE,168,4.0,9.0,100,0.20,,,0.27,24.000000,,2013-06-06 12:43:00,
2013-06-06 08:53:00,57.0,57.0,-100.00,SSE,168,4.0,9.0,100,0.20,,,0.27,24.000000,,2013-06-06 12:53:00,
2013-06-06 09:01:00,57.0,57.0,-100.00,South,180,4.0,9.0,100,0.24,,,0.51,54.000000,,2013-06-06 13:01:00,
2013-06-06 09:23:00,57.0,57.0,-100.00,South,180,4.0,9.0,100,0.24,,,0.51,54.000000,,2013-06-06 13:23:00,
2013-06-06 09:33:00,57.0,57.0,-100.00,South,180,4.0,9.0,100,0.24,,,0.51,54.000000,,2013-06-06 13:33:00,
2013-06-06 09:43:00,57.0,57.0,-100.00,South,180,4.0,9.0,100,0.24,,,0.51,54.000000,,2013-06-06 13:43:00,
2013-06-06 09:53:00,57.0,57.0,-100.00,South,180,4.0,9.0,100,0.24,,,0.51,54.000000,,2013-06-06 13:53:00,
2013-06-06 10:01:00,58.0,58.0,-100.00,South,191,4.0,11.0,100,0.04,,,0.55,86.000000,,2013-06-06 14:01:00,
2013-06-06 10:23:00,58.0,58.0,-100.00,South,191,4.0,11.0,100,0.04,,,0.55,86.000000,,2013-06-06 14:23:00,
2013-06-06 10:33:00,58.0,58.0,-100.00,South,191,4.0,11.0,100,0.04,,,0.55,86.000000,,2013-06-06 14:33:00,
2013-06-06 10:43:00,58.0,58.0,-100.00,South,191,4.0,11.0,100,0.04,,,0.55,86.000000,,2013-06-06 14:43:00,
2013-06-06 10:53:00,58.0,58.0,-100.00,South,191,4.0,11.0,100,0.04,,,0.55,86.000000,,2013-06-06 14:53:00,
2013-06-06 11:01:00,59.0,59.0,-100.00,South,185,4.0,10.0,100,0.08,,,0.63,162.000000,,2013-06-06 15:01:00,
2013-06-06 11:23:00,59.0,59.0,-100.00,South,185,4.0,10.0,100,0.08,,,0.63,162.000000,,2013-06-06 15:23:00,
2013-06-06 11:33:00,59.0,59.0,-100.00,South,185,4.0,10.0,100,0.08,,,0.63,162.000000,,2013-06-06 15:33:00,
2013-06-06 11:43:00,59.0,59.0,-100.00,South,185,4.0,10.0,100,0.08,,,0.63,162.000000,,2013-06-06 15:43:00,
2013-06-06 11:53:00,59.0,59.0,-100.00,South,185,4.0,10.0,100,0.08,,,0.63,162.000000,,2013-06-06 15:53:00,
2013-06-06 12:01:00,59.0,59.0,-100.00,SSW,211,4.0,7.0,100,0.07,,,0.70,176.000000,,2013-06-06 16:01:00,
2013-06-06 12:23:00,59.0,59.0,-100.00,SSW,211,4.0,7.0,100,0.07,,,0.70,176.000000,,2013-06-06 16:23:00,
2013-06-06 12:34:00,59.0,59.0,-100.00,SSW,211,4.0,7.0,100,0.07,,,0.70,176.000000,,2013-06-06 16:34:00,
2013-06-06 12:44:00,59.0,59.0,-100.00,SSW,211,4.0,7.0,100,0.07,,,0.70,176.000000,,2013-06-06 16:44:00,
2013-06-06 12:53:00,59.0,59.0,-100.00,SSW,211,4.0,7.0,100,0.07,,,0.70,176.000000,,2013-06-06 16:53:00,
2013-06-06 13:01:00,59.0,59.0,-100.00,South,183,2.0,8.0,100,0.07,,,0.77,150.000000,,2013-06-06 17:01:00,
2013-06-06 13:23:00,59.0,59.0,-100.00,South,183,2.0,8.0,100,0.07,,,0.77,150.000000,,2013-06-06 17:23:00,
2013-06-06 13:33:00,59.0,59.0,-100.00,South,183,2.0,8.0,100,0.07,,,0.77,150.000000,,2013-06-06 17:33:00,
2013-06-06 13:43:00,59.0,59.0,-100.00,South,183,2.0,8.0,100,0.07,,,0.77,150.000000,,2013-06-06 17:43:00,
2013-06-06 13:53:00,59.0,59.0,-100.00,South,183,2.0,8.0,100,0.07,,,0.77,150.000000,,2013-06-06 17:53:00,
2013-06-06 14:01:00,59.0,59.0,-100.00,South,186,3.0,9.0,100,0.04,,,0.81,170.000000,,2013-06-06 18:01:00,
2013-06-06 14:23:00,59.0,59.0,-100.00,South,186,3.0,9.0,100,0.04,,,0.81,170.000000,,2013-06-06 18:23:00,
2013-06-06 14:33:00,59.0,59.0,-100.00,South,186,3.0,9.0,100,0.04,,,0.81,170.000000,,2013-06-06 18:33:00,
2013-06-06 14:43:00,59.0,59.0,-100.00,South,186,3.0,9.0,100,0.04,,,0.81,170.000000,,2013-06-06 18:43:00,
2013-06-06 14:53:00,59.0,59.0,-100.00,South,186,3.0,9.0,100,0.04,,,0.81,170.000000,,2013-06-06 18:53:00,
2013-06-06 15:01:00,59.0,59.0,-100.00,South,184,3.0,8.0,100,0.02,,,0.83,118.000000,,2013-06-06 19:01:00,
2013-06-06 15:23:00,59.0,59.0,-100.00,South,184,3.0,8.0,100,0.02,,,0.83,118.000000,,2013-06-06 19:23:00,
2013-06-06 15:34:00,59.0,59.0,-100.00,South,184,3.0,8.0,100,0.02,,,0.83,118.000000,,2013-06-06 19:34:00,
2013-06-06 15:43:00,59.0,59.0,-100.00,South,184,3.0,8.0,100,0.02,,,0.83,118.000000,,2013-06-06 19:43:00,
2013-06-06 15:53:00,59.0,59.0,-100.00,South,184,3.0,8.0,100,0.02,,,0.83,118.000000,,2013-06-06 19:53:00,
2013-06-06 16:01:00,60.0,60.0,-100.00,South,173,3.0,7.0,100,0.00,,,0.83,213.000000,,2013-06-06 20:01:00,
2013-06-06 16:23:00,60.0,60.0,-100.00,South,173,3.0,7.0,100,0.00,,,0.83,213.000000,,2013-06-06 20:23:00,
2013-06-06 16:33:00,60.0,60.0,-100.00,South,173,3.0,7.0,100,0.00,,,0.83,213.000000,,2013-06-06 20:33:00,
2013-06-06 16:43:00,60.0,60.0,-100.00,South,173,3.0,7.0,100,0.00,,,0.83,213.000000,,2013-06-06 20:43:00,
2013-06-06 16:53:00,60.0,60.0,-100.00,South,173,3.0,7.0,100,0.00,,,0.83,213.000000,,2013-06-06 20:53:00,
2013-06-06 17:01:00,61.0,61.0,-100.00,South,186,4.0,9.0,100,0.00,,,0.83,215.000000,,2013-06-06 21:01:00,
2013-06-06 17:23:00,61.0,61.0,-100.00,South,186,4.0,9.0,100,0.00,,,0.83,215.000000,,2013-06-06 21:23:00,
2013-06-06 17:33:00,61.0,61.0,-100.00,South,186,4.0,9.0,100,0.00,,,0.83,215.000000,,2013-06-06 21:33:00,
2013-06-06 17:44:00,61.0,61.0,-100.00,South,186,4.0,9.0,100,0.00,,,0.83,215.000000,,2013-06-06 21:44:00,
2013-06-06 17:53:00,61.0,61.0,-100.00,South,186,4.0,9.0,100,0.00,,,0.83,215.000000,,2013-06-06 21:53:00,
2013-06-06 18:01:00,63.0,63.0,-100.00,South,182,3.0,9.0,100,0.00,,,0.83,250.000000,,2013-06-06 22:01:00,
2013-06-06 18:23:00,63.0,63.0,-100.00,South,182,3.0,9.0,100,0.00,,,0.83,250.000000,,2013-06-06 22:23:00,
2013-06-06 18:33:00,63.0,63.0,-100.00,South,182,3.0,9.0,100,0.00,,,0.83,250.000000,,2013-06-06 22:33:00,
2013-06-06 18:43:00,63.0,63.0,-100.00,South,182,3.0,9.0,100,0.00,,,0.83,250.000000,,2013-06-06 22:43:00,
2013-06-06 18:53:00,63.0,63.0,-100.00,South,182,3.0,9.0,100,0.00,,,0.83,250.000000,,2013-06-06 22:53:00,
2013-06-06 19:01:00,61.0,61.0,-100.00,South,170,3.0,6.0,100,0.00,,,0.83,120.000000,,2013-06-06 23:01:00,
2013-06-06 19:22:00,61.0,61.0,-100.00,South,170,3.0,6.0,100,0.00,,,0.83,120.000000,,2013-06-06 23:22:00,
2013-06-06 19:33:00,61.0,61.0,-100.00,South,170,3.0,6.0,100,0.00,,,0.83,120.000000,,2013-06-06 23:33:00,
2013-06-06 19:43:00,61.0,61.0,-100.00,South,170,3.0,6.0,100,0.00,,,0.83,120.000000,,2013-06-06 23:43:00,
2013-06-06 19:52:00,61.0,61.0,-100.00,South,170,3.0,6.0,100,0.00,,,0.83,120.000000,,2013-06-06 23:52:00,
2013-06-06 20:01:00,60.0,60.0,-100.00,SE,145,3.0,8.0,100,0.00,,,0.83,41.000000,,2013-06-07 00:01:00,
2013-06-06 20:22:00,60.0,60.0,-100.00,SE,145,3.0,8.0,100,0.00,,,0.83,41.000000,,2013-06-07 00:22:00,
2013-06-06 20:32:00,60.0,60.0,-100.00,SE,145,3.0,8.0,100,0.00,,,0.83,41.000000,,2013-06-07 00:32:00,
2013-06-06 20:42:00,60.0,60.0,-100.00,SE,145,3.0,8.0,100,0.00,,,0.83,41.000000,,2013-06-07 00:42:00,
2013-06-06 20:52:00,60.0,60.0,-100.00,SE,145,3.0,8.0,100,0.00,,,0.83,41.000000,,2013-06-07 00:52:00,
2013-06-06 21:01:00,60.0,60.0,-100.00,NNE,30,1.0,7.0,100,0.00,,,0.83,7.000000,,2013-06-07 01:01:00,
2013-06-06 21:22:00,60.0,60.0,-100.00,NNE,30,1.0,7.0,100,0.00,,,0.83,7.000000,,2013-06-07 01:22:00,
2013-06-06 21:33:00,60.0,60.0,-100.00,NNE,30,1.0,7.0,100,0.00,,,0.83,7.000000,,2013-06-07 01:33:00,
2013-06-06 21:42:00,60.0,60.0,-100.00,NNE,30,1.0,7.0,100,0.00,,,0.83,7.000000,,2013-06-07 01:42:00,
2013-06-06 21:52:00,60.0,60.0,-100.00,NNE,30,1.0,7.0,100,0.00,,,0.83,7.000000,,2013-06-07 01:52:00,
2013-06-06 22:01:00,60.0,60.0,-100.00,SW,227,2.0,4.0,100,0.00,,,0.83,0.000000,,2013-06-07 02:01:00,
2013-06-06 22:22:00,60.0,60.0,-100.00,SW,227,2.0,4.0,100,0.00,,,0.83,0.000000,,2013-06-07 02:22:00,
2013-06-06 22:32:00,60.0,60.0,-100.00,SW,227,2.0,4.0,100,0.00,,,0.83,0.000000,,2013-06-07 02:32:00,
2013-06-06 22:42:00,60.0,60.0,-100.00,SW,227,2.0,4.0,100,0.00,,,0.83,0.000000,,2013-06-07 02:42:00,
2013-06-06 22:52:00,60.0,60.0,-100.00,SW,227,2.0,4.0,100,0.00,,,0.83,0.000000,,2013-06-07 02:52:00,
2013-06-06 23:01:00,60.0,60.0,-100.00,South,187,3.0,5.0,100,0.00,,,0.83,0.000000,,2013-06-07 03:01:00,
2013-06-06 23:22:00,60.0,60.0,-100.00,South,187,3.0,5.0,100,0.00,,,0.83,0.000000,,2013-06-07 03:22:00,
2013-06-06 23:33:00,60.0,60.0,-100.00,South,187,3.0,5.0,100,0.00,,,0.83,0.000000,,2013-06-07 03:33:00,
2013-06-06 23:44:00,60.0,60.0,-100.00,South,187,3.0,5.0,100,0.00,,,0.83,0.000000,,2013-06-07 03:44:00,
2013-06-06 23:53:00,60.0,60.0,-100.00,South,187,3.0,5.0,100,0.00,,,0.83,0.000000,,2013-06-07 03:53:00,